Hualapai, Arizona
Current Conditions -  °F | °C
As of 5:54 PM on Friday 24 Oct 2014 (Local Time) from KGCN Reporting Station
Smoke Smoke  
Wind Chill: 56°   Ceiling: Unl
Heat Index: 56°   Visibility: 10mi
Dew Point: 22°   Wind: 0mph
Humidity: 27%   Direction: NA
Pressure: 30.31"   Gusts: NA
Location:  35.9°N, 113.11°W
Report Text: KGCN 250054Z 00000KT 10SM FU CLR 13/M06 A3031 RMK AO2 SLP230 T01331056
Loading
Personal Weather Stations






























Interactive Weather Map
Tropical Storm Tracking
New forecast layout! Learn more

10-Day Weather Forecast

Advertisements
Track Severe Weather on mobile